sensor_id;sensor_type;location;lat;lon;timestamp;temperature;humidity
16305;DHT22;8261;47.678;-122.174;2023-04-25T00:02:05;17.60;99.90
16305;DHT22;8261;47.678;-122.174;2023-04-25T00:04:37;17.20;99.90
16305;DHT22;8261;47.678;-122.174;2023-04-25T00:07:10;17.20;99.90
16305;DHT22;8261;47.678;-122.174;2023-04-25T00:09:41;17.10;99.90
16305;DHT22;8261;47.678;-122.174;2023-04-25T00:12:12;16.80;99.90
16305;DHT22;8261;47.678;-122.174;2023-04-25T00:14:44;16.30;99.90
16305;DHT22;8261;47.678;-122.174;2023-04-25T00:17:17;16.20;99.90
16305;DHT22;8261;47.678;-122.174;2023-04-25T00:19:48;15.70;99.90
16305;DHT22;8261;47.678;-122.174;2023-04-25T00:22:20;15.50;99.90
16305;DHT22;8261;47.678;-122.174;2023-04-25T00:24:51;15.40;99.90
16305;DHT22;8261;47.678;-122.174;2023-04-25T00:27:25;15.40;99.90
16305;DHT22;8261;47.678;-122.174;2023-04-25T00:29:57;15.40;99.90
16305;DHT22;8261;47.678;-122.174;2023-04-25T00:32:30;15.30;99.90
16305;DHT22;8261;47.678;-122.174;2023-04-25T00:35:02;15.00;99.90
16305;DHT22;8261;47.678;-122.174;2023-04-25T00:37:33;14.90;99.90
16305;DHT22;8261;47.678;-122.174;2023-04-25T00:40:06;15.00;99.90
16305;DHT22;8261;47.678;-122.174;2023-04-25T00:42:38;15.00;99.90
16305;DHT22;8261;47.678;-122.174;2023-04-25T00:45:13;15.10;99.90
16305;DHT22;8261;47.678;-122.174;2023-04-25T00:47:46;15.00;99.90
16305;DHT22;8261;47.678;-122.174;2023-04-25T00:50:18;15.00;99.90
16305;DHT22;8261;47.678;-122.174;2023-04-25T00:52:50;15.00;99.90
16305;DHT22;8261;47.678;-122.174;2023-04-25T00:55:21;15.00;99.90
16305;DHT22;8261;47.678;-122.174;2023-04-25T00:57:53;15.00;99.90
16305;DHT22;8261;47.678;-122.174;2023-04-25T01:00:25;14.90;99.90
16305;DHT22;8261;47.678;-122.174;2023-04-25T01:02:58;14.80;99.90
16305;DHT22;8261;47.678;-122.174;2023-04-25T01:05:32;14.80;99.90
16305;DHT22;8261;47.678;-122.174;2023-04-25T01:08:04;14.70;99.90
16305;DHT22;8261;47.678;-122.174;2023-04-25T01:10:36;14.50;99.90
16305;DHT22;8261;47.678;-122.174;2023-04-25T01:13:07;14.50;99.90
16305;DHT22;8261;47.678;-122.174;2023-04-25T01:15:39;14.30;99.90
16305;DHT22;8261;47.678;-122.174;2023-04-25T01:18:12;14.20;99.90
16305;DHT22;8261;47.678;-122.174;2023-04-25T01:20:47;14.30;99.90
16305;DHT22;8261;47.678;-122.174;2023-04-25T01:23:23;14.30;99.90
16305;DHT22;8261;47.678;-122.174;2023-04-25T01:25:56;14.10;99.90
16305;DHT22;8261;47.678;-122.174;2023-04-25T01:28:28;14.20;99.90
16305;DHT22;8261;47.678;-122.174;2023-04-25T01:30:59;14.20;99.90
16305;DHT22;8261;47.678;-122.174;2023-04-25T01:33:31;14.00;99.90
16305;DHT22;8261;47.678;-122.174;2023-04-25T01:36:03;14.00;99.90
16305;DHT22;8261;47.678;-122.174;2023-04-25T01:38:38;13.90;99.90
16305;DHT22;8261;47.678;-122.174;2023-04-25T01:41:10;13.80;99.90
16305;DHT22;8261;47.678;-122.174;2023-04-25T01:43:42;13.80;99.90
16305;DHT22;8261;47.678;-122.174;2023-04-25T01:46:14;13.80;99.90
16305;DHT22;8261;47.678;-122.174;2023-04-25T01:48:45;13.80;99.90
16305;DHT22;8261;47.678;-122.174;2023-04-25T01:51:17;13.80;99.90
16305;DHT22;8261;47.678;-122.174;2023-04-25T01:53:51;13.80;99.90
16305;DHT22;8261;47.678;-122.174;2023-04-25T01:56:23;13.60;99.90
16305;DHT22;8261;47.678;-122.174;2023-04-25T01:58:54;13.60;99.90
16305;DHT22;8261;47.678;-122.174;2023-04-25T02:01:28;13.50;99.90
16305;DHT22;8261;47.678;-122.174;2023-04-25T02:04:00;13.60;99.90
16305;DHT22;8261;47.678;-122.174;2023-04-25T02:06:32;13.60;99.90
16305;DHT22;8261;47.678;-122.174;2023-04-25T02:09:06;13.60;99.90
16305;DHT22;8261;47.678;-122.174;2023-04-25T02:11:38;13.70;99.90
16305;DHT22;8261;47.678;-122.174;2023-04-25T02:14:10;13.60;99.90
16305;DHT22;8261;47.678;-122.174;2023-04-25T02:16:41;13.60;99.90
16305;DHT22;8261;47.678;-122.174;2023-04-25T02:19:13;13.50;99.90
16305;DHT22;8261;47.678;-122.174;2023-04-25T02:21:45;13.50;99.90
16305;DHT22;8261;47.678;-122.174;2023-04-25T02:24:17;13.40;99.90
16305;DHT22;8261;47.678;-122.174;2023-04-25T02:26:49;13.30;99.90
16305;DHT22;8261;47.678;-122.174;2023-04-25T02:29:21;13.30;99.90
16305;DHT22;8261;47.678;-122.174;2023-04-25T02:31:53;13.20;99.90
16305;DHT22;8261;47.678;-122.174;2023-04-25T02:34:25;13.20;99.90
16305;DHT22;8261;47.678;-122.174;2023-04-25T02:36:57;13.10;99.90
16305;DHT22;8261;47.678;-122.174;2023-04-25T02:39:30;13.00;99.90
16305;DHT22;8261;47.678;-122.174;2023-04-25T02:42:02;13.00;99.90
16305;DHT22;8261;47.678;-122.174;2023-04-25T02:44:33;12.80;99.90
16305;DHT22;8261;47.678;-122.174;2023-04-25T02:47:05;12.70;99.90
16305;DHT22;8261;47.678;-122.174;2023-04-25T02:49:36;12.60;99.90
16305;DHT22;8261;47.678;-122.174;2023-04-25T02:52:07;12.60;99.90
16305;DHT22;8261;47.678;-122.174;2023-04-25T02:54:41;12.50;99.90
16305;DHT22;8261;47.678;-122.174;2023-04-25T02:57:12;12.50;99.90
16305;DHT22;8261;47.678;-122.174;2023-04-25T02:59:43;12.50;99.90
16305;DHT22;8261;47.678;-122.174;2023-04-25T03:02:15;12.50;99.90
16305;DHT22;8261;47.678;-122.174;2023-04-25T03:04:47;12.50;99.90
16305;DHT22;8261;47.678;-122.174;2023-04-25T03:07:19;12.40;99.90
16305;DHT22;8261;47.678;-122.174;2023-04-25T03:09:52;12.30;99.90
16305;DHT22;8261;47.678;-122.174;2023-04-25T03:12:26;12.30;99.90
16305;DHT22;8261;47.678;-122.174;2023-04-25T03:14:58;12.20;99.90
16305;DHT22;8261;47.678;-122.174;2023-04-25T03:17:29;12.20;99.90
16305;DHT22;8261;47.678;-122.174;2023-04-25T03:20:00;12.10;99.90
16305;DHT22;8261;47.678;-122.174;2023-04-25T03:22:36;12.10;99.90
16305;DHT22;8261;47.678;-122.174;2023-04-25T03:25:10;12.10;99.90
16305;DHT22;8261;47.678;-122.174;2023-04-25T03:27:41;12.00;99.90
16305;DHT22;8261;47.678;-122.174;2023-04-25T03:30:13;12.10;99.90
16305;DHT22;8261;47.678;-122.174;2023-04-25T03:32:44;12.00;99.90
16305;DHT22;8261;47.678;-122.174;2023-04-25T03:35:16;11.90;99.90
16305;DHT22;8261;47.678;-122.174;2023-04-25T03:37:47;12.00;99.90
16305;DHT22;8261;47.678;-122.174;2023-04-25T03:40:21;11.90;99.90
16305;DHT22;8261;47.678;-122.174;2023-04-25T03:42:52;11.90;99.90
16305;DHT22;8261;47.678;-122.174;2023-04-25T03:45:23;11.90;99.90
16305;DHT22;8261;47.678;-122.174;2023-04-25T03:47:55;11.90;99.90
16305;DHT22;8261;47.678;-122.174;2023-04-25T03:50:26;11.90;99.90
16305;DHT22;8261;47.678;-122.174;2023-04-25T03:52:58;11.80;99.90
16305;DHT22;8261;47.678;-122.174;2023-04-25T03:55:31;11.80;99.90
16305;DHT22;8261;47.678;-122.174;2023-04-25T03:58:03;11.80;99.90
16305;DHT22;8261;47.678;-122.174;2023-04-25T04:00:35;11.70;99.90
16305;DHT22;8261;47.678;-122.174;2023-04-25T04:03:07;11.70;99.90
16305;DHT22;8261;47.678;-122.174;2023-04-25T04:05:42;11.70;99.90
16305;DHT22;8261;47.678;-122.174;2023-04-25T04:08:14;11.70;99.90
16305;DHT22;8261;47.678;-122.174;2023-04-25T04:10:48;11.70;99.90
16305;DHT22;8261;47.678;-122.174;2023-04-25T04:13:19;11.70;99.90
16305;DHT22;8261;47.678;-122.174;2023-04-25T04:15:51;11.60;99.90
16305;DHT22;8261;47.678;-122.174;2023-04-25T04:18:23;11.60;99.90
16305;DHT22;8261;47.678;-122.174;2023-04-25T04:20:54;11.60;99.90
16305;DHT22;8261;47.678;-122.174;2023-04-25T04:23:26;11.60;99.90
16305;DHT22;8261;47.678;-122.174;2023-04-25T04:26:00;11.60;99.90
16305;DHT22;8261;47.678;-122.174;2023-04-25T04:28:32;11.50;99.90
16305;DHT22;8261;47.678;-122.174;2023-04-25T04:31:04;11.60;99.90
16305;DHT22;8261;47.678;-122.174;2023-04-25T04:33:36;11.50;99.90
16305;DHT22;8261;47.678;-122.174;2023-04-25T04:36:08;11.50;99.90
16305;DHT22;8261;47.678;-122.174;2023-04-25T04:38:40;11.40;99.90
16305;DHT22;8261;47.678;-122.174;2023-04-25T04:41:14;11.40;99.90
16305;DHT22;8261;47.678;-122.174;2023-04-25T04:43:45;11.30;99.90
16305;DHT22;8261;47.678;-122.174;2023-04-25T04:46:18;11.40;99.90
16305;DHT22;8261;47.678;-122.174;2023-04-25T04:48:49;11.30;99.90
16305;DHT22;8261;47.678;-122.174;2023-04-25T04:51:22;11.20;99.90
16305;DHT22;8261;47.678;-122.174;2023-04-25T04:53:54;11.20;99.90
16305;DHT22;8261;47.678;-122.174;2023-04-25T04:56:29;11.10;99.90
16305;DHT22;8261;47.678;-122.174;2023-04-25T04:59:01;11.10;99.90
16305;DHT22;8261;47.678;-122.174;2023-04-25T05:01:33;11.00;99.90
16305;DHT22;8261;47.678;-122.174;2023-04-25T05:04:06;11.00;99.90
16305;DHT22;8261;47.678;-122.174;2023-04-25T05:06:37;11.00;99.90
16305;DHT22;8261;47.678;-122.174;2023-04-25T05:09:09;11.00;99.90
16305;DHT22;8261;47.678;-122.174;2023-04-25T05:11:43;11.00;99.90
16305;DHT22;8261;47.678;-122.174;2023-04-25T05:14:15;11.00;99.90
16305;DHT22;8261;47.678;-122.174;2023-04-25T05:16:46;10.90;99.90
16305;DHT22;8261;47.678;-122.174;2023-04-25T05:19:19;10.90;99.90
16305;DHT22;8261;47.678;-122.174;2023-04-25T05:21:50;10.80;99.90
16305;DHT22;8261;47.678;-122.174;2023-04-25T05:24:21;10.80;99.90
16305;DHT22;8261;47.678;-122.174;2023-04-25T05:26:55;10.80;99.90
16305;DHT22;8261;47.678;-122.174;2023-04-25T05:29:27;10.70;99.90
16305;DHT22;8261;47.678;-122.174;2023-04-25T05:31:59;10.60;99.90
16305;DHT22;8261;47.678;-122.174;2023-04-25T05:34:31;10.60;99.90
16305;DHT22;8261;47.678;-122.174;2023-04-25T05:37:03;10.50;99.90
16305;DHT22;8261;47.678;-122.174;2023-04-25T05:39:35;10.50;99.90
16305;DHT22;8261;47.678;-122.174;2023-04-25T05:42:08;10.40;99.90
16305;DHT22;8261;47.678;-122.174;2023-04-25T05:44:39;10.30;99.90
16305;DHT22;8261;47.678;-122.174;2023-04-25T05:47:10;10.30;99.90
16305;DHT22;8261;47.678;-122.174;2023-04-25T05:49:42;10.30;99.90
16305;DHT22;8261;47.678;-122.174;2023-04-25T05:52:13;10.30;99.90
16305;DHT22;8261;47.678;-122.174;2023-04-25T05:54:44;10.20;99.90
16305;DHT22;8261;47.678;-122.174;2023-04-25T05:57:25;10.10;99.90
16305;DHT22;8261;47.678;-122.174;2023-04-25T05:59:57;10.00;99.90
16305;DHT22;8261;47.678;-122.174;2023-04-25T06:02:29;9.90;99.90
16305;DHT22;8261;47.678;-122.174;2023-04-25T06:05:01;9.90;99.90
16305;DHT22;8261;47.678;-122.174;2023-04-25T06:07:33;9.80;99.90
16305;DHT22;8261;47.678;-122.174;2023-04-25T06:10:05;9.70;99.90
16305;DHT22;8261;47.678;-122.174;2023-04-25T06:12:39;9.60;99.90
16305;DHT22;8261;47.678;-122.174;2023-04-25T06:15:11;9.60;99.90
16305;DHT22;8261;47.678;-122.174;2023-04-25T06:17:55;9.60;99.90
16305;DHT22;8261;47.678;-122.174;2023-04-25T06:20:27;9.60;99.90
16305;DHT22;8261;47.678;-122.174;2023-04-25T06:22:59;9.40;99.90
16305;DHT22;8261;47.678;-122.174;2023-04-25T06:25:31;9.40;99.90
16305;DHT22;8261;47.678;-122.174;2023-04-25T06:28:04;9.30;99.90
16305;DHT22;8261;47.678;-122.174;2023-04-25T06:30:36;9.20;99.90
16305;DHT22;8261;47.678;-122.174;2023-04-25T06:33:08;9.30;99.90
16305;DHT22;8261;47.678;-122.174;2023-04-25T06:35:40;9.20;99.90
16305;DHT22;8261;47.678;-122.174;2023-04-25T06:38:11;9.20;99.90
16305;DHT22;8261;47.678;-122.174;2023-04-25T06:40:43;9.20;99.90
16305;DHT22;8261;47.678;-122.174;2023-04-25T06:43:17;9.30;99.90
16305;DHT22;8261;47.678;-122.174;2023-04-25T06:45:48;9.30;99.90
16305;DHT22;8261;47.678;-122.174;2023-04-25T06:48:19;9.40;99.90
16305;DHT22;8261;47.678;-122.174;2023-04-25T06:50:51;9.40;99.90
16305;DHT22;8261;47.678;-122.174;2023-04-25T06:53:24;9.40;99.90
16305;DHT22;8261;47.678;-122.174;2023-04-25T06:55:55;9.40;99.90
16305;DHT22;8261;47.678;-122.174;2023-04-25T06:58:29;9.40;99.90
16305;DHT22;8261;47.678;-122.174;2023-04-25T07:01:01;9.40;99.90
16305;DHT22;8261;47.678;-122.174;2023-04-25T07:03:32;9.40;99.90
16305;DHT22;8261;47.678;-122.174;2023-04-25T07:06:06;9.50;99.90
16305;DHT22;8261;47.678;-122.174;2023-04-25T07:08:38;9.50;99.90
16305;DHT22;8261;47.678;-122.174;2023-04-25T07:11:09;9.50;99.90
16305;DHT22;8261;47.678;-122.174;2023-04-25T07:13:42;9.60;99.90
16305;DHT22;8261;47.678;-122.174;2023-04-25T07:16:14;9.60;99.90
16305;DHT22;8261;47.678;-122.174;2023-04-25T07:18:45;9.50;99.90
16305;DHT22;8261;47.678;-122.174;2023-04-25T07:21:16;9.40;99.90
16305;DHT22;8261;47.678;-122.174;2023-04-25T07:23:48;9.30;99.90
16305;DHT22;8261;47.678;-122.174;2023-04-25T07:26:19;9.40;99.90
16305;DHT22;8261;47.678;-122.174;2023-04-25T07:28:53;9.40;99.90
16305;DHT22;8261;47.678;-122.174;2023-04-25T07:31:25;9.30;99.90
16305;DHT22;8261;47.678;-122.174;2023-04-25T07:33:57;9.30;99.90
16305;DHT22;8261;47.678;-122.174;2023-04-25T07:36:29;9.30;99.90
16305;DHT22;8261;47.678;-122.174;2023-04-25T07:39:01;9.30;99.90
16305;DHT22;8261;47.678;-122.174;2023-04-25T07:41:32;9.30;99.90
16305;DHT22;8261;47.678;-122.174;2023-04-25T07:44:07;9.30;99.90
16305;DHT22;8261;47.678;-122.174;2023-04-25T07:46:39;9.30;99.90
16305;DHT22;8261;47.678;-122.174;2023-04-25T07:49:11;9.20;99.90
16305;DHT22;8261;47.678;-122.174;2023-04-25T07:51:44;9.20;99.90
16305;DHT22;8261;47.678;-122.174;2023-04-25T07:54:18;9.20;99.90
16305;DHT22;8261;47.678;-122.174;2023-04-25T07:56:50;9.10;99.90
16305;DHT22;8261;47.678;-122.174;2023-04-25T07:59:24;9.10;99.90
16305;DHT22;8261;47.678;-122.174;2023-04-25T08:01:57;9.00;99.90
16305;DHT22;8261;47.678;-122.174;2023-04-25T08:04:29;9.00;99.90
16305;DHT22;8261;47.678;-122.174;2023-04-25T08:07:01;8.90;99.90
16305;DHT22;8261;47.678;-122.174;2023-04-25T08:09:32;8.90;99.90
16305;DHT22;8261;47.678;-122.174;2023-04-25T08:12:05;8.80;99.90
16305;DHT22;8261;47.678;-122.174;2023-04-25T08:14:38;8.80;99.90
16305;DHT22;8261;47.678;-122.174;2023-04-25T08:17:11;8.80;99.90
16305;DHT22;8261;47.678;-122.174;2023-04-25T08:19:42;8.90;99.90
16305;DHT22;8261;47.678;-122.174;2023-04-25T08:22:13;8.90;99.90
16305;DHT22;8261;47.678;-122.174;2023-04-25T08:24:45;8.90;99.90
16305;DHT22;8261;47.678;-122.174;2023-04-25T08:27:17;9.00;99.90
16305;DHT22;8261;47.678;-122.174;2023-04-25T08:29:52;9.00;99.90
16305;DHT22;8261;47.678;-122.174;2023-04-25T08:32:23;9.00;99.90
16305;DHT22;8261;47.678;-122.174;2023-04-25T08:34:57;9.10;99.90
16305;DHT22;8261;47.678;-122.174;2023-04-25T08:37:29;9.10;99.90
16305;DHT22;8261;47.678;-122.174;2023-04-25T08:40:01;9.10;99.90
16305;DHT22;8261;47.678;-122.174;2023-04-25T08:42:37;9.10;99.90
16305;DHT22;8261;47.678;-122.174;2023-04-25T08:45:12;9.10;99.90
16305;DHT22;8261;47.678;-122.174;2023-04-25T08:47:46;9.10;99.90
16305;DHT22;8261;47.678;-122.174;2023-04-25T08:50:19;9.10;99.90
16305;DHT22;8261;47.678;-122.174;2023-04-25T08:52:53;9.00;99.90
16305;DHT22;8261;47.678;-122.174;2023-04-25T08:55:25;9.00;99.90
16305;DHT22;8261;47.678;-122.174;2023-04-25T08:57:58;9.00;99.90
16305;DHT22;8261;47.678;-122.174;2023-04-25T09:00:33;9.00;99.90
16305;DHT22;8261;47.678;-122.174;2023-04-25T09:03:05;9.00;99.90
16305;DHT22;8261;47.678;-122.174;2023-04-25T09:05:37;9.00;99.90
16305;DHT22;8261;47.678;-122.174;2023-04-25T09:08:12;9.10;99.90
16305;DHT22;8261;47.678;-122.174;2023-04-25T09:10:43;9.10;99.90
16305;DHT22;8261;47.678;-122.174;2023-04-25T09:13:23;9.10;99.90
16305;DHT22;8261;47.678;-122.174;2023-04-25T09:15:58;9.00;99.90
16305;DHT22;8261;47.678;-122.174;2023-04-25T09:18:31;9.00;99.90
16305;DHT22;8261;47.678;-122.174;2023-04-25T09:21:06;9.00;99.90
16305;DHT22;8261;47.678;-122.174;2023-04-25T09:23:43;8.90;99.90
16305;DHT22;8261;47.678;-122.174;2023-04-25T09:26:17;9.00;99.90
16305;DHT22;8261;47.678;-122.174;2023-04-25T09:28:49;8.90;99.90
16305;DHT22;8261;47.678;-122.174;2023-04-25T09:31:38;8.80;99.90
16305;DHT22;8261;47.678;-122.174;2023-04-25T09:34:10;8.90;99.90
16305;DHT22;8261;47.678;-122.174;2023-04-25T09:36:44;8.80;99.90
16305;DHT22;8261;47.678;-122.174;2023-04-25T09:39:16;8.90;99.90
16305;DHT22;8261;47.678;-122.174;2023-04-25T09:41:54;8.90;99.90
16305;DHT22;8261;47.678;-122.174;2023-04-25T09:44:25;8.90;99.90
16305;DHT22;8261;47.678;-122.174;2023-04-25T09:46:59;8.90;99.90
16305;DHT22;8261;47.678;-122.174;2023-04-25T09:49:31;8.90;99.90
16305;DHT22;8261;47.678;-122.174;2023-04-25T09:52:03;8.90;99.90
16305;DHT22;8261;47.678;-122.174;2023-04-25T09:54:35;8.90;99.90
16305;DHT22;8261;47.678;-122.174;2023-04-25T09:57:11;8.90;99.90
16305;DHT22;8261;47.678;-122.174;2023-04-25T09:59:45;9.10;99.90
16305;DHT22;8261;47.678;-122.174;2023-04-25T10:02:19;9.00;99.90
16305;DHT22;8261;47.678;-122.174;2023-04-25T10:04:52;9.00;99.90
16305;DHT22;8261;47.678;-122.174;2023-04-25T10:07:26;9.00;99.90
16305;DHT22;8261;47.678;-122.174;2023-04-25T10:10:01;8.90;99.90
16305;DHT22;8261;47.678;-122.174;2023-04-25T10:12:33;8.90;99.90
16305;DHT22;8261;47.678;-122.174;2023-04-25T10:15:05;8.80;99.90
16305;DHT22;8261;47.678;-122.174;2023-04-25T10:17:40;8.80;99.90
16305;DHT22;8261;47.678;-122.174;2023-04-25T10:20:11;8.90;99.90
16305;DHT22;8261;47.678;-122.174;2023-04-25T10:22:45;8.90;99.90
16305;DHT22;8261;47.678;-122.174;2023-04-25T10:25:17;8.90;99.90
16305;DHT22;8261;47.678;-122.174;2023-04-25T10:27:51;9.00;99.90
16305;DHT22;8261;47.678;-122.174;2023-04-25T10:30:23;9.00;99.90
16305;DHT22;8261;47.678;-122.174;2023-04-25T10:32:59;9.00;99.90
16305;DHT22;8261;47.678;-122.174;2023-04-25T10:35:31;9.00;99.90
16305;DHT22;8261;47.678;-122.174;2023-04-25T10:38:08;8.90;99.90
16305;DHT22;8261;47.678;-122.174;2023-04-25T10:40:41;8.90;99.90
16305;DHT22;8261;47.678;-122.174;2023-04-25T10:43:38;8.90;99.90
16305;DHT22;8261;47.678;-122.174;2023-04-25T10:46:19;8.90;99.90
16305;DHT22;8261;47.678;-122.174;2023-04-25T10:48:53;8.90;99.90
16305;DHT22;8261;47.678;-122.174;2023-04-25T10:51:26;8.90;99.90
16305;DHT22;8261;47.678;-122.174;2023-04-25T10:54:10;8.90;99.90
16305;DHT22;8261;47.678;-122.174;2023-04-25T10:56:43;8.90;99.90
16305;DHT22;8261;47.678;-122.174;2023-04-25T10:59:16;8.90;99.90
16305;DHT22;8261;47.678;-122.174;2023-04-25T11:01:48;8.90;99.90
16305;DHT22;8261;47.678;-122.174;2023-04-25T11:04:28;8.90;99.90
16305;DHT22;8261;47.678;-122.174;2023-04-25T11:07:10;8.90;99.90
16305;DHT22;8261;47.678;-122.174;2023-04-25T11:09:42;8.90;99.90
16305;DHT22;8261;47.678;-122.174;2023-04-25T11:12:16;8.90;99.90
16305;DHT22;8261;47.678;-122.174;2023-04-25T11:14:48;8.90;99.90
16305;DHT22;8261;47.678;-122.174;2023-04-25T11:17:20;8.90;99.90
16305;DHT22;8261;47.678;-122.174;2023-04-25T11:19:54;8.90;99.90
16305;DHT22;8261;47.678;-122.174;2023-04-25T11:22:27;8.90;99.90
16305;DHT22;8261;47.678;-122.174;2023-04-25T11:25:05;8.80;99.90
16305;DHT22;8261;47.678;-122.174;2023-04-25T11:27:50;8.80;99.90
16305;DHT22;8261;47.678;-122.174;2023-04-25T11:30:23;8.90;99.90
16305;DHT22;8261;47.678;-122.174;2023-04-25T11:32:55;8.90;99.90
16305;DHT22;8261;47.678;-122.174;2023-04-25T11:35:28;8.90;99.90
16305;DHT22;8261;47.678;-122.174;2023-04-25T11:38:00;8.90;99.90
16305;DHT22;8261;47.678;-122.174;2023-04-25T11:40:32;8.90;99.90
16305;DHT22;8261;47.678;-122.174;2023-04-25T11:43:04;8.90;99.90
16305;DHT22;8261;47.678;-122.174;2023-04-25T11:45:37;8.90;99.90
16305;DHT22;8261;47.678;-122.174;2023-04-25T11:48:09;8.80;99.90
16305;DHT22;8261;47.678;-122.174;2023-04-25T11:50:42;8.80;99.90
16305;DHT22;8261;47.678;-122.174;2023-04-25T11:53:14;8.80;99.90
16305;DHT22;8261;47.678;-122.174;2023-04-25T11:55:45;8.80;99.90
16305;DHT22;8261;47.678;-122.174;2023-04-25T11:58:18;8.80;99.90
16305;DHT22;8261;47.678;-122.174;2023-04-25T12:00:50;8.80;99.90
16305;DHT22;8261;47.678;-122.174;2023-04-25T12:03:22;8.70;99.90
16305;DHT22;8261;47.678;-122.174;2023-04-25T12:06:03;8.80;99.90
16305;DHT22;8261;47.678;-122.174;2023-04-25T12:08:35;8.80;99.90
16305;DHT22;8261;47.678;-122.174;2023-04-25T12:11:20;8.70;99.90
16305;DHT22;8261;47.678;-122.174;2023-04-25T12:13:53;8.70;99.90
16305;DHT22;8261;47.678;-122.174;2023-04-25T12:16:25;8.70;99.90
16305;DHT22;8261;47.678;-122.174;2023-04-25T12:18:57;8.70;99.90
16305;DHT22;8261;47.678;-122.174;2023-04-25T12:21:32;8.70;99.90
16305;DHT22;8261;47.678;-122.174;2023-04-25T12:24:24;8.70;99.90
16305;DHT22;8261;47.678;-122.174;2023-04-25T12:27:02;8.70;99.90
16305;DHT22;8261;47.678;-122.174;2023-04-25T12:29:34;8.70;99.90
16305;DHT22;8261;47.678;-122.174;2023-04-25T12:32:16;8.70;99.90
16305;DHT22;8261;47.678;-122.174;2023-04-25T12:34:48;8.80;99.90
16305;DHT22;8261;47.678;-122.174;2023-04-25T12:37:21;8.80;99.90
16305;DHT22;8261;47.678;-122.174;2023-04-25T12:39:52;8.80;99.90
16305;DHT22;8261;47.678;-122.174;2023-04-25T12:42:24;8.90;99.90
16305;DHT22;8261;47.678;-122.174;2023-04-25T12:44:55;8.90;99.90
16305;DHT22;8261;47.678;-122.174;2023-04-25T12:47:27;8.90;99.90
16305;DHT22;8261;47.678;-122.174;2023-04-25T12:49:59;8.80;99.90
16305;DHT22;8261;47.678;-122.174;2023-04-25T12:52:33;8.80;99.90
16305;DHT22;8261;47.678;-122.174;2023-04-25T12:55:06;8.80;99.90
16305;DHT22;8261;47.678;-122.174;2023-04-25T12:57:37;8.80;99.90
16305;DHT22;8261;47.678;-122.174;2023-04-25T13:00:09;8.80;99.90
16305;DHT22;8261;47.678;-122.174;2023-04-25T13:02:43;8.80;99.90
16305;DHT22;8261;47.678;-122.174;2023-04-25T13:05:16;8.80;99.90
16305;DHT22;8261;47.678;-122.174;2023-04-25T13:07:49;8.80;99.90
16305;DHT22;8261;47.678;-122.174;2023-04-25T13:10:21;8.80;99.90
16305;DHT22;8261;47.678;-122.174;2023-04-25T13:12:53;8.90;99.90
16305;DHT22;8261;47.678;-122.174;2023-04-25T13:15:24;8.80;99.90
16305;DHT22;8261;47.678;-122.174;2023-04-25T13:17:56;8.70;99.90
16305;DHT22;8261;47.678;-122.174;2023-04-25T13:20:27;8.70;99.90
16305;DHT22;8261;47.678;-122.174;2023-04-25T13:23:00;8.70;99.90
16305;DHT22;8261;47.678;-122.174;2023-04-25T13:25:31;8.70;99.90
16305;DHT22;8261;47.678;-122.174;2023-04-25T13:28:03;8.70;99.90
16305;DHT22;8261;47.678;-122.174;2023-04-25T13:30:34;8.80;99.90
16305;DHT22;8261;47.678;-122.174;2023-04-25T13:33:06;8.70;99.90
16305;DHT22;8261;47.678;-122.174;2023-04-25T13:35:38;8.70;99.90
16305;DHT22;8261;47.678;-122.174;2023-04-25T13:38:12;8.80;99.90
16305;DHT22;8261;47.678;-122.174;2023-04-25T13:40:44;8.80;99.90
16305;DHT22;8261;47.678;-122.174;2023-04-25T13:43:15;8.70;99.90
16305;DHT22;8261;47.678;-122.174;2023-04-25T13:45:47;8.70;99.90
16305;DHT22;8261;47.678;-122.174;2023-04-25T13:48:19;8.80;99.90
16305;DHT22;8261;47.678;-122.174;2023-04-25T13:50:51;8.80;99.90
16305;DHT22;8261;47.678;-122.174;2023-04-25T13:53:25;8.90;99.90
16305;DHT22;8261;47.678;-122.174;2023-04-25T13:55:57;8.90;99.90
16305;DHT22;8261;47.678;-122.174;2023-04-25T13:58:29;8.80;99.90
16305;DHT22;8261;47.678;-122.174;2023-04-25T14:01:01;8.80;99.90
16305;DHT22;8261;47.678;-122.174;2023-04-25T14:03:32;8.80;99.90
16305;DHT22;8261;47.678;-122.174;2023-04-25T14:06:04;8.80;99.90
16305;DHT22;8261;47.678;-122.174;2023-04-25T14:08:39;8.80;99.90
16305;DHT22;8261;47.678;-122.174;2023-04-25T14:11:10;8.80;99.90
16305;DHT22;8261;47.678;-122.174;2023-04-25T14:13:42;8.80;99.90
16305;DHT22;8261;47.678;-122.174;2023-04-25T14:16:13;8.90;99.90
16305;DHT22;8261;47.678;-122.174;2023-04-25T14:18:45;8.80;99.90
16305;DHT22;8261;47.678;-122.174;2023-04-25T14:21:17;8.90;99.90
16305;DHT22;8261;47.678;-122.174;2023-04-25T14:23:51;8.80;99.90
16305;DHT22;8261;47.678;-122.174;2023-04-25T14:26:23;8.90;99.90
16305;DHT22;8261;47.678;-122.174;2023-04-25T14:28:56;9.00;99.90
16305;DHT22;8261;47.678;-122.174;2023-04-25T14:31:27;8.90;99.90
16305;DHT22;8261;47.678;-122.174;2023-04-25T14:33:59;8.90;99.90
16305;DHT22;8261;47.678;-122.174;2023-04-25T14:36:30;8.80;99.90
16305;DHT22;8261;47.678;-122.174;2023-04-25T14:39:03;8.80;99.90
16305;DHT22;8261;47.678;-122.174;2023-04-25T14:41:35;8.80;99.90
16305;DHT22;8261;47.678;-122.174;2023-04-25T14:44:07;8.80;99.90
16305;DHT22;8261;47.678;-122.174;2023-04-25T14:46:38;8.80;99.90
16305;DHT22;8261;47.678;-122.174;2023-04-25T14:49:10;8.90;99.90
16305;DHT22;8261;47.678;-122.174;2023-04-25T14:51:41;8.90;99.90
16305;DHT22;8261;47.678;-122.174;2023-04-25T14:54:15;8.90;99.90
16305;DHT22;8261;47.678;-122.174;2023-04-25T14:56:47;8.90;99.90
16305;DHT22;8261;47.678;-122.174;2023-04-25T14:59:19;8.90;99.90
16305;DHT22;8261;47.678;-122.174;2023-04-25T15:01:51;9.00;99.90
16305;DHT22;8261;47.678;-122.174;2023-04-25T15:04:26;9.00;99.90
16305;DHT22;8261;47.678;-122.174;2023-04-25T15:06:58;9.10;99.90
16305;DHT22;8261;47.678;-122.174;2023-04-25T15:09:32;9.10;99.90
16305;DHT22;8261;47.678;-122.174;2023-04-25T15:12:03;9.20;99.90
16305;DHT22;8261;47.678;-122.174;2023-04-25T15:14:35;9.20;99.90
16305;DHT22;8261;47.678;-122.174;2023-04-25T15:17:06;9.30;99.90
16305;DHT22;8261;47.678;-122.174;2023-04-25T15:19:37;9.30;99.90
16305;DHT22;8261;47.678;-122.174;2023-04-25T15:22:09;9.30;99.90
16305;DHT22;8261;47.678;-122.174;2023-04-25T15:24:42;9.30;99.90
16305;DHT22;8261;47.678;-122.174;2023-04-25T15:27:15;9.40;99.90
16305;DHT22;8261;47.678;-122.174;2023-04-25T15:29:46;9.40;99.90
16305;DHT22;8261;47.678;-122.174;2023-04-25T15:32:18;9.40;99.90
16305;DHT22;8261;47.678;-122.174;2023-04-25T15:34:52;9.40;99.90
16305;DHT22;8261;47.678;-122.174;2023-04-25T15:37:24;9.40;99.90
16305;DHT22;8261;47.678;-122.174;2023-04-25T15:40:02;9.50;99.90
16305;DHT22;8261;47.678;-122.174;2023-04-25T15:42:37;9.60;99.90
16305;DHT22;8261;47.678;-122.174;2023-04-25T15:45:10;9.60;99.90